Time;durP1;ratioP1;P1;durP2;ratioP2;P2;SDS_P1;SDS_P2;PMS_P1;PMS_P2;Temp;Humidity;BMP_temperature;BMP_pressure;BME280_temperature;BME280_humidity;BME280_pressure;Samples;Min_cycle;Max_cycle;Signal;HPM_P1;HPM_P2
2021/09/27 00:01:06;;;;;;;9.95;3.55;;;;;;;9.09;88.11;144491.39;1853402;77;22550;-66
2021/09/27 00:03:42;;;;;;;7.00;2.42;;;;;;;9.04;88.38;144478.87;1835239;77;22157;-62
2021/09/27 00:06:35;;;;;;;6.30;2.10;;;;;;;9.01;88.65;144471.36;1853396;77;22139;-68
2021/09/27 00:09:10;;;;;;;5.35;2.20;;;;;;;8.97;88.83;144462.56;1853466;77;22135;-67
2021/09/27 00:11:45;;;;;;;11.10;2.50;;;;;;;8.95;89.06;144456.30;1853516;77;22575;-64
2021/09/27 00:14:40;;;;;;;5.97;2.70;;;;;;;8.94;89.30;144455.06;1834901;77;22132;-66
2021/09/27 00:17:21;;;;;;;9.90;4.12;;;;;;;8.89;89.52;144443.78;1853439;77;22631;-65
2021/09/27 00:19:57;;;;;;;7.50;2.85;;;;;;;8.89;89.61;144442.53;1837563;77;38299;-63
2021/09/27 00:22:32;;;;;;;6.75;3.15;;;;;;;8.94;89.67;144453.81;1834894;77;22132;-64
2021/09/27 00:25:10;;;;;;;5.37;2.60;;;;;;;8.92;89.63;144450.03;1853456;77;22139;-65
2021/09/27 00:27:51;;;;;;;5.95;2.65;;;;;;;8.89;89.52;144443.78;1834073;77;22136;-65
2021/09/27 00:30:47;;;;;;;4.58;2.70;;;;;;;8.84;89.50;144431.25;1834769;77;22157;-64
2021/09/27 00:33:24;;;;;;;7.97;2.80;;;;;;;8.79;89.60;144417.48;1853471;77;22132;-63
2021/09/27 00:36:18;;;;;;;7.22;3.15;;;;;;;8.74;89.79;144406.20;1834973;77;20099;-66
2021/09/27 00:39:12;;;;;;;5.85;2.33;;;;;;;8.73;89.99;144402.42;1834714;77;22200;-63
2021/09/27 00:42:07;;;;;;;4.92;2.40;;;;;;;8.68;89.95;144391.19;1834845;77;22579;-66
2021/09/27 00:45:03;;;;;;;5.80;2.35;;;;;;;8.66;90.03;144386.17;1853433;77;22562;-66
2021/09/27 00:47:38;;;;;;;8.78;2.80;;;;;;;8.64;90.05;144382.41;1853462;77;22160;-65
2021/09/27 00:50:25;;;;;;;3.33;1.80;;;;;;;8.65;90.12;144383.64;1853189;77;22804;-70
2021/09/27 00:53:28;;;;;;;7.67;3.15;;;;;;;8.64;90.18;144382.41;1834888;77;22575;-64
2021/09/27 00:56:05;;;;;;;5.92;3.37;;;;;;;8.63;90.19;144378.67;1853391;77;22152;-67
2021/09/27 00:59:09;;;;;;;11.78;3.95;;;;;;;8.61;90.27;144373.66;1853434;77;22212;-69
2021/09/27 01:02:10;;;;;;;10.00;4.58;;;;;;;8.58;90.37;144366.16;1853412;77;22227;-68
2021/09/27 01:05:09;;;;;;;9.13;4.55;;;;;;;8.53;90.58;144353.63;1837689;77;28023;-69
2021/09/27 01:08:14;;;;;;;13.60;5.10;;;;;;;8.54;90.74;144357.36;1834829;77;22136;-68
2021/09/27 01:11:31;;;;;;;8.98;3.33;;;;;;;8.50;90.93;144347.38;1834669;77;22240;-68
2021/09/27 01:14:20;;;;;;;8.28;3.25;;;;;;;8.46;91.11;144337.34;1834839;77;22156;-67
2021/09/27 01:17:25;;;;;;;5.42;2.30;;;;;;;8.40;91.39;144323.56;1853409;77;22159;-66
2021/09/27 01:20:31;;;;;;;5.83;2.98;;;;;;;8.34;91.67;144308.47;1834720;77;22579;-66
2021/09/27 01:23:37;;;;;;;4.20;2.30;;;;;;;8.29;91.88;144295.95;1834016;77;22639;-65
2021/09/27 01:27:00;;;;;;;10.85;2.50;;;;;;;8.26;92.08;144288.45;1853498;77;22252;-66
2021/09/27 01:30:05;;;;;;;10.20;2.47;;;;;;;8.21;92.55;144277.17;1834918;77;22160;-66
2021/09/27 01:32:50;;;;;;;8.98;2.60;;;;;;;8.18;92.81;144268.44;1834965;77;22128;-65
2021/09/27 01:36:07;;;;;;;6.03;2.33;;;;;;;8.15;93.01;144262.17;1834864;77;22153;-66
2021/09/27 01:38:57;;;;;;;7.92;2.15;;;;;;;8.11;93.25;144252.14;1834912;77;22168;-66
2021/09/27 01:42:20;;;;;;;4.55;2.20;;;;;;;8.05;93.58;144238.37;1843001;78;22602;-64
2021/09/27 01:45:08;;;;;;;7.80;2.55;;;;;;;8.03;93.85;144232.13;1834132;77;22190;-65
2021/09/27 01:48:13;;;;;;;4.72;2.37;;;;;;;8.02;94.00;144230.87;1834989;77;22153;-63
2021/09/27 01:51:12;;;;;;;5.15;2.45;;;;;;;8.05;94.13;144237.14;1834773;77;22141;-64
2021/09/27 01:54:18;;;;;;;8.78;2.35;;;;;;;8.07;94.16;144240.91;1853416;77;22571;-64
2021/09/27 01:57:41;;;;;;;5.10;2.00;;;;;;;8.08;94.27;144243.41;1834850;77;22587;-63
2021/09/27 02:00:28;;;;;;;7.25;2.90;;;;;;;8.04;94.36;144235.91;1853211;77;22139;-65
2021/09/27 02:03:27;;;;;;;7.17;2.58;;;;;;;8.01;94.48;144228.41;1835294;77;22160;-63
2021/09/27 02:06:37;;;;;;;6.00;2.58;;;;;;;7.93;94.66;144208.34;1834606;77;22620;-63
2021/09/27 02:09:29;;;;;;;5.85;2.58;;;;;;;7.88;94.91;144195.83;1834069;77;22620;-63
2021/09/27 02:12:26;;;;;;;11.08;3.30;;;;;;;7.82;95.19;144180.83;1834852;77;22164;-63
2021/09/27 02:15:13;;;;;;;5.65;2.47;;;;;;;7.77;95.43;144168.31;1815866;79;20216;-63
2021/09/27 02:18:52;;;;;;;7.30;2.67;;;;;;;7.71;95.80;144153.27;1833997;77;22185;-62
2021/09/27 02:21:33;;;;;;;7.60;2.40;;;;;;;7.64;96.20;144137.03;1834726;77;22156;-62
2021/09/27 02:24:31;;;;;;;7.12;2.80;;;;;;;7.60;96.35;144128.25;1818501;77;28005;-63
2021/09/27 02:27:16;;;;;;;5.25;2.62;;;;;;;7.64;96.55;144135.78;1834879;77;22157;-62
2021/09/27 02:29:51;;;;;;;7.42;2.83;;;;;;;7.57;96.64;144119.50;1834891;77;22156;-65
2021/09/27 02:33:03;;;;;;;7.05;2.80;;;;;;;7.51;96.91;144105.75;1853344;77;22585;-64
2021/09/27 02:35:50;;;;;;;7.70;2.60;;;;;;;7.44;97.09;144088.23;1834913;77;22132;-66
2021/09/27 02:39:10;;;;;;;9.53;2.70;;;;;;;7.39;97.54;144076.97;1834035;77;22616;-65
2021/09/27 02:42:32;;;;;;;5.67;2.60;;;;;;;7.37;97.88;144070.70;1853479;77;22221;-62
2021/09/27 02:45:10;;;;;;;7.12;2.47;;;;;;;7.35;98.10;144065.69;1853466;77;22143;-64
2021/09/27 02:48:01;;;;;;;5.95;2.12;;;;;;;7.31;98.46;144055.72;1834104;77;22128;-62
2021/09/27 02:50:50;;;;;;;9.75;2.87;;;;;;;7.30;98.76;144054.47;1853481;77;22123;-62
2021/09/27 02:53:32;;;;;;;7.45;3.00;;;;;;;7.32;98.97;144058.20;1818646;77;27977;-62
2021/09/27 02:56:47;;;;;;;10.88;3.27;;;;;;;7.40;98.91;144078.20;1834804;77;22669;-62
2021/09/27 02:59:49;;;;;;;8.30;2.62;;;;;;;7.39;98.75;144076.97;1834898;77;22140;-65
2021/09/27 03:02:47;;;;;;;6.28;2.62;;;;;;;7.37;98.80;144070.70;1853318;77;22156;-66
2021/09/27 03:05:55;;;;;;;7.42;2.60;;;;;;;7.35;98.86;144066.98;1853432;77;22597;-64
2021/09/27 03:08:38;;;;;;;8.98;3.00;;;;;;;7.32;99.12;144058.20;1834905;77;22160;-64
2021/09/27 03:11:46;;;;;;;11.22;3.25;;;;;;;7.30;99.23;144053.19;1834847;77;22153;-63
2021/09/27 03:15:10;;;;;;;7.22;2.87;;;;;;;7.28;99.34;144048.22;1834868;77;22212;-63
2021/09/27 03:18:01;;;;;;;6.35;3.15;;;;;;;7.25;99.75;144041.97;1834909;77;22136;-63
2021/09/27 03:20:55;;;;;;;6.67;3.00;;;;;;;7.22;100.00;144034.42;1834904;77;22590;-63
2021/09/27 03:24:17;;;;;;;6.25;2.85;;;;;;;7.23;100.00;144035.72;1834900;77;22144;-63
2021/09/27 03:27:22;;;;;;;5.83;2.70;;;;;;;7.20;100.00;144028.17;1834106;77;22177;-63
2021/09/27 03:30:45;;;;;;;6.00;3.05;;;;;;;7.15;100.00;144018.19;1834908;77;22125;-64
2021/09/27 03:33:59;;;;;;;4.42;2.50;;;;;;;7.11;100.00;144008.17;1834775;77;22161;-65
2021/09/27 03:37:19;;;;;;;8.18;4.10;;;;;;;7.07;100.00;143998.19;1834936;77;22137;-63
2021/09/27 03:40:25;;;;;;;5.83;3.00;;;;;;;7.04;100.00;143990.66;1853450;77;22166;-63
2021/09/27 03:43:24;;;;;;;9.45;3.70;;;;;;;7.03;100.00;143988.17;1800576;79;22176;-63
2021/09/27 03:46:38;;;;;;;8.20;4.75;;;;;;;7.01;100.00;143983.16;1834887;77;22160;-63
2021/09/27 03:49:24;;;;;;;10.05;6.97;;;;;;;6.98;100.00;143974.42;1834899;77;22558;-65
2021/09/27 03:52:07;;;;;;;14.47;9.58;;;;;;;6.95;100.00;143968.17;1819330;77;28009;-65
2021/09/27 03:54:51;;;;;;;15.53;10.65;;;;;;;7.00;100.00;143979.44;1834951;77;22140;-64
2021/09/27 03:57:34;;;;;;;16.05;10.48;;;;;;;7.00;100.00;143980.67;1834862;77;22567;-67
2021/09/27 04:00:20;;;;;;;12.68;8.30;;;;;;;6.99;100.00;143978.16;1834826;77;22164;-65
2021/09/27 04:04:06;;;;;;;11.95;7.58;;;;;;;6.99;100.00;143978.16;1834726;77;22626;-64
2021/09/27 04:07:10;;;;;;;9.98;6.75;;;;;;;7.00;100.00;143980.67;1804089;77;28109;-65
2021/09/27 04:10:09;;;;;;;9.08;6.28;;;;;;;7.10;100.00;144005.69;1835027;77;22187;-62
2021/09/27 04:13:11;;;;;;;9.58;6.40;;;;;;;7.12;100.00;144010.70;1829500;77;22183;-64
2021/09/27 04:16:08;;;;;;;10.93;6.25;;;;;;;7.13;100.00;144013.19;1830842;77;22227;-64
2021/09/27 04:19:24;;;;;;;12.55;6.47;;;;;;;7.13;100.00;144013.19;1823681;77;22223;-62
2021/09/27 04:22:22;;;;;;;11.28;7.05;;;;;;;7.13;100.00;144013.19;1825885;77;22643;-64
2021/09/27 04:26:01;;;;;;;11.50;7.65;;;;;;;7.20;100.00;144028.17;1834868;77;22164;-62
2021/09/27 04:29:07;;;;;;;9.85;6.87;;;;;;;8.00;100.00;144224.63;1830755;77;22239;-65
2021/09/27 04:31:59;;;;;;;11.30;7.62;;;;;;;9.24;98.07;144528.97;1853408;77;22164;-65
2021/09/27 04:34:45;;;;;;;12.43;6.05;;;;;;;10.34;93.69;144798.50;1834671;77;22136;-65
2021/09/27 04:37:28;;;;;;;7.95;4.37;;;;;;;11.27;88.18;145025.53;1822333;77;22736;-64
2021/09/27 04:40:11;;;;;;;7.37;4.87;;;;;;;12.12;84.29;145234.00;1853060;77;22290;-64
2021/09/27 04:43:32;;;;;;;6.75;3.25;;;;;;;13.03;79.45;145458.87;1853172;77;22717;-63
2021/09/27 04:46:28;;;;;;;7.17;3.70;;;;;;;13.89;75.25;145668.83;1834923;77;22140;-66
2021/09/27 04:49:14;;;;;;;5.40;2.58;;;;;;;14.58;70.16;145837.44;1832420;77;22217;-64
2021/09/27 04:52:25;;;;;;;4.65;2.20;;;;;;;15.05;66.65;145953.23;1853468;77;22124;-72
2021/09/27 04:55:46;;;;;;;4.55;2.02;;;;;;;15.39;64.62;146038.84;1833941;77;22227;-65
2021/09/27 04:58:43;;;;;;;4.97;2.60;;;;;;;15.82;62.09;146143.38;1819174;77;38301;-64
2021/09/27 05:02:05;;;;;;;4.80;2.00;;;;;;;16.30;60.63;146260.53;1833963;77;22631;-65
2021/09/27 05:04:53;;;;;;;6.42;2.83;;;;;;;16.81;58.75;146387.81;1834758;77;22160;-67
2021/09/27 05:08:21;;;;;;;4.92;2.08;;;;;;;17.25;56.43;146496.25;1833974;77;22168;-64
2021/09/27 05:11:33;;;;;;;7.45;2.50;;;;;;;17.32;56.03;146512.63;1845907;77;22702;-64
2021/09/27 05:14:23;;;;;;;6.92;3.58;;;;;;;17.35;55.39;146520.17;1828244;77;22588;-67
2021/09/27 05:17:41;;;;;;;10.53;5.60;;;;;;;16.86;56.60;146400.42;1817326;77;22593;-65
2021/09/27 05:20:44;;;;;;;10.55;6.92;;;;;;;15.93;58.36;146169.84;1833721;77;22247;-66
2021/09/27 05:23:51;;;;;;;9.03;5.12;;;;;;;14.94;61.10;145926.81;1834969;77;22120;-62
2021/09/27 05:26:46;;;;;;;11.10;6.55;;;;;;;13.86;64.50;145661.30;1805890;77;38319;-64
2021/09/27 05:29:51;;;;;;;9.20;5.45;;;;;;;13.25;68.18;145512.94;1811120;77;22127;-62
2021/09/27 05:33:01;;;;;;;9.88;5.33;;;;;;;13.50;68.28;145573.28;1834884;77;22164;-63
2021/09/27 05:36:23;;;;;;;7.28;4.25;;;;;;;13.67;67.56;145616.03;1834244;77;22152;-65
2021/09/27 05:39:29;;;;;;;9.28;3.92;;;;;;;12.95;69.47;145438.78;1853465;77;22211;-63
2021/09/27 05:42:38;;;;;;;8.05;4.15;;;;;;;12.54;71.39;145336.97;1834939;77;22164;-63
2021/09/27 05:45:55;;;;;;;8.48;4.37;;;;;;;12.31;73.14;145280.45;1834970;77;22132;-63
2021/09/27 05:48:47;;;;;;;9.95;3.85;;;;;;;12.70;73.33;145377.20;1834941;77;22132;-64
2021/09/27 05:51:47;;;;;;;9.23;5.22;;;;;;;13.59;71.34;145594.69;1834947;77;22132;-64
2021/09/27 05:54:43;;;;;;;11.63;5.30;;;;;;;14.44;68.86;145804.69;1835054;77;22157;-63
2021/09/27 05:57:50;;;;;;;8.83;4.12;;;;;;;15.71;65.77;146116.94;1834862;77;22153;-65
2021/09/27 06:00:50;;;;;;;8.23;4.00;;;;;;;17.17;60.28;146476.05;1819058;77;28023;-64
2021/09/27 06:04:04;;;;;;;8.50;3.52;;;;;;;18.73;56.03;146859.59;1834142;77;22159;-63
2021/09/27 06:06:45;;;;;;;9.30;2.87;;;;;;;19.47;53.32;147042.69;1834944;77;22147;-64
2021/09/27 06:10:17;;;;;;;5.58;2.33;;;;;;;19.95;51.58;147161.45;1853117;77;22204;-65
2021/09/27 06:13:16;;;;;;;6.58;2.60;;;;;;;19.81;50.73;147126.06;1853448;77;22131;-66
2021/09/27 06:16:19;;;;;;;6.25;2.52;;;;;;;20.49;49.67;147295.36;1837771;77;28003;-65
2021/09/27 06:19:32;;;;;;;4.83;2.33;;;;;;;21.15;48.04;147458.45;1834116;77;22574;-66
2021/09/27 06:22:48;;;;;;;6.15;2.30;;;;;;;21.28;46.77;147490.06;1853513;77;22172;-66
2021/09/27 06:25:40;;;;;;;7.17;2.65;;;;;;;21.68;46.14;147588.77;1834984;77;22546;-66
2021/09/27 06:28:30;;;;;;;7.90;4.00;;;;;;;21.06;46.22;147434.44;1831216;77;22155;-65
2021/09/27 06:31:36;;;;;;;7.47;3.08;;;;;;;20.95;46.54;147407.89;1853590;77;22168;-65
2021/09/27 06:34:25;;;;;;;5.92;2.72;;;;;;;21.09;46.92;147443.31;1853562;77;22294;-64
2021/09/27 06:37:24;;;;;;;5.80;2.60;;;;;;;22.02;44.56;147672.22;1834963;77;22129;-65
2021/09/27 06:40:20;;;;;;;5.78;2.00;;;;;;;22.40;43.53;147765.91;1853550;77;22574;-65
2021/09/27 06:43:24;;;;;;;3.00;1.50;;;;;;;21.49;44.45;147540.69;1834200;77;22176;-65
2021/09/27 06:46:05;;;;;;;2.67;1.25;;;;;;;20.62;45.89;147327.00;1834111;77;22184;-65
2021/09/27 06:48:40;;;;;;;4.20;1.20;;;;;;;20.48;46.28;147292.84;1810363;77;22625;-64
2021/09/27 06:51:41;;;;;;;2.05;1.00;;;;;;;20.03;47.33;147180.41;1834942;77;22574;-67
2021/09/27 06:54:16;;;;;;;2.67;1.10;;;;;;;20.28;46.75;147242.31;1834983;77;22607;-65
2021/09/27 06:57:12;;;;;;;5.25;1.30;;;;;;;20.24;46.38;147232.19;1834956;77;22140;-64
2021/09/27 06:59:53;;;;;;;3.00;1.22;;;;;;;19.58;47.50;147069.19;1834118;77;22173;-65
2021/09/27 07:02:34;;;;;;;2.55;1.25;;;;;;;18.35;49.98;146766.20;1853399;77;22177;-65
2021/09/27 07:05:28;;;;;;;2.85;1.20;;;;;;;16.88;53.79;146405.47;1834949;77;22187;-64
2021/09/27 07:08:23;;;;;;;4.92;1.47;;;;;;;15.93;57.01;146171.09;1834899;77;22606;-64
2021/09/27 07:10:59;;;;;;;3.20;1.52;;;;;;;15.37;59.32;146033.80;1837522;77;38259;-67
2021/09/27 07:13:43;;;;;;;2.77;1.30;;;;;;;14.64;62.04;145853.81;1853287;77;22223;-64
2021/09/27 07:16:38;;;;;;;7.05;1.90;;;;;;;14.07;64.54;145714.14;1819146;77;27996;-67
2021/09/27 07:19:31;;;;;;;7.28;1.67;;;;;;;14.42;65.15;145798.39;1853353;77;22668;-65
2021/09/27 07:22:33;;;;;;;5.37;1.40;;;;;;;14.75;63.36;145881.47;1853729;77;22620;-64
2021/09/27 07:25:16;;;;;;;5.83;1.57;;;;;;;14.47;64.18;145812.22;1853598;77;22183;-65
2021/09/27 07:27:58;;;;;;;4.60;1.80;;;;;;;14.22;65.12;145749.33;1834177;77;22583;-67
2021/09/27 07:30:58;;;;;;;3.72;1.52;;;;;;;14.94;64.70;145928.06;1834192;77;22168;-64
2021/09/27 07:33:52;;;;;;;3.98;1.77;;;;;;;14.88;62.06;145912.97;1853604;77;22123;-63
2021/09/27 07:36:45;;;;;;;3.52;1.32;;;;;;;14.83;62.60;145900.34;1853646;77;22135;-66
2021/09/27 07:39:39;;;;;;;3.15;1.50;;;;;;;15.40;62.42;146041.34;1834968;77;22136;-70
2021/09/27 07:42:34;;;;;;;3.17;1.10;;;;;;;16.18;59.38;146232.83;1834908;77;22152;-66
2021/09/27 07:45:13;;;;;;;4.00;1.02;;;;;;;16.97;56.04;146425.62;1835169;77;22196;-65
2021/09/27 07:48:13;;;;;;;3.00;0.90;;;;;;;17.66;53.08;146597.13;1853524;77;22184;-67
2021/09/27 07:51:06;;;;;;;2.85;1.00;;;;;;;17.82;52.55;146635.00;1834162;77;22164;-67
2021/09/27 07:54:01;;;;;;;1.77;1.02;;;;;;;18.44;49.64;146790.19;1833653;77;22271;-65
2021/09/27 07:56:37;;;;;;;6.15;1.10;;;;;;;17.89;49.25;146652.67;1833872;77;22626;-67
2021/09/27 07:59:12;;;;;;;2.40;0.60;;;;;;;16.70;51.81;146361.31;1834117;77;22228;-66
2021/09/27 08:01:48;;;;;;;2.25;0.95;;;;;;;15.72;54.02;146119.48;1818963;77;27913;-65
2021/09/27 08:16:14;;;;;;;2.10;0.80;;;;;;;15.51;55.36;146067.77;1835006;77;22608;-66
2021/09/27 08:18:50;;;;;;;2.22;0.93;;;;;;;15.26;56.30;146004.83;1853517;77;22193;-65
2021/09/27 08:21:45;;;;;;;2.85;1.10;;;;;;;14.92;57.40;145923.02;1841424;77;22219;-66
2021/09/27 08:24:28;;;;;;;2.08;1.00;;;;;;;14.62;58.77;145848.77;1843384;77;22155;-65
2021/09/27 08:27:04;;;;;;;1.82;1.00;;;;;;;14.93;59.04;145925.56;1835000;77;22159;-66
2021/09/27 08:29:39;;;;;;;2.95;0.80;;;;;;;15.06;58.90;145955.72;1834925;77;22122;-66
2021/09/27 08:32:14;;;;;;;3.98;0.90;;;;;;;15.86;56.51;146153.47;1853611;77;22159;-65
2021/09/27 08:35:09;;;;;;;1.37;0.60;;;;;;;16.30;53.47;146260.53;1834996;77;22136;-65
2021/09/27 08:37:45;;;;;;;1.52;0.70;;;;;;;15.93;52.88;146169.84;1835047;77;22540;-65
2021/09/27 08:41:07;;;;;;;1.60;0.80;;;;;;;15.25;53.83;146003.58;1835008;77;22129;-66
2021/09/27 08:44:01;;;;;;;2.10;1.17;;;;;;;14.70;54.91;145867.64;1834987;77;22124;-66
2021/09/27 08:47:18;;;;;;;3.55;1.55;;;;;;;14.34;55.92;145779.53;1853380;77;22200;-66
2021/09/27 08:50:23;;;;;;;1.50;0.80;;;;;;;14.48;56.71;145814.77;1819417;77;28381;-65
2021/09/27 08:53:15;;;;;;;2.27;0.82;;;;;;;14.93;54.54;145925.56;1853521;77;22160;-65
2021/09/27 08:55:54;;;;;;;1.52;0.82;;;;;;;14.75;54.89;145881.47;1834884;77;22185;-66
2021/09/27 08:58:52;;;;;;;3.12;0.80;;;;;;;14.68;54.84;145862.59;1853493;77;22612;-65
2021/09/27 09:01:40;;;;;;;3.50;1.00;;;;;;;14.49;55.26;145817.27;1834966;77;22129;-65
2021/09/27 09:04:32;;;;;;;1.82;0.82;;;;;;;14.28;55.44;145764.45;1834948;77;22124;-65
2021/09/27 09:07:21;;;;;;;3.10;0.80;;;;;;;14.26;56.07;145759.41;1835088;77;22124;-65
2021/09/27 09:10:23;;;;;;;8.23;1.90;;;;;;;14.43;56.11;145800.94;1834760;77;22212;-66
2021/09/27 09:13:07;;;;;;;9.00;1.30;;;;;;;14.47;54.69;145810.97;1834928;77;22124;-67
2021/09/27 09:15:48;;;;;;;5.05;1.40;;;;;;;14.47;54.70;145812.22;1834774;77;22629;-65
2021/09/27 09:18:53;;;;;;;1.65;0.80;;;;;;;14.69;54.86;145865.14;1848198;78;22128;-65
2021/09/27 09:21:57;;;;;;;2.60;1.10;;;;;;;14.87;53.35;145909.19;1834956;77;22571;-65
2021/09/27 09:24:51;;;;;;;2.15;1.12;;;;;;;15.00;53.30;145940.64;1835098;77;22205;-67
2021/09/27 09:27:45;;;;;;;1.85;0.88;;;;;;;15.02;53.29;145945.69;1835063;77;22205;-65
2021/09/27 09:30:56;;;;;;;3.37;0.85;;;;;;;14.81;53.51;145895.34;1853898;77;22123;-66
2021/09/27 09:33:56;;;;;;;3.35;0.90;;;;;;;14.61;53.63;145845.02;1835272;77;22191;-65
2021/09/27 09:36:39;;;;;;;2.35;1.00;;;;;;;14.48;54.06;145814.77;1834933;77;22124;-65
2021/09/27 09:39:26;;;;;;;2.27;0.90;;;;;;;14.34;54.37;145779.53;1834962;77;22156;-65
2021/09/27 09:42:28;;;;;;;3.00;0.90;;;;;;;14.19;54.42;145741.78;1853493;77;22645;-65
2021/09/27 09:45:16;;;;;;;2.17;0.78;;;;;;;14.14;54.46;145729.22;1834777;77;22226;-65
2021/09/27 09:47:51;;;;;;;2.62;0.90;;;;;;;14.08;54.63;145716.63;1835100;77;22128;-67
2021/09/27 09:50:30;;;;;;;5.33;0.90;;;;;;;13.99;55.29;145692.73;1834989;77;22156;-65
2021/09/27 09:53:36;;;;;;;1.10;0.68;;;;;;;13.85;55.03;145658.80;1853475;77;22163;-65
2021/09/27 09:56:35;;;;;;;2.75;0.82;;;;;;;13.71;55.27;145623.58;1835026;77;22156;-65
2021/09/27 09:59:33;;;;;;;1.42;0.80;;;;;;;13.56;55.74;145588.41;1834964;77;22149;-66
2021/09/27 10:02:19;;;;;;;2.45;0.80;;;;;;;13.51;56.22;145575.83;1834982;77;22121;-65
2021/09/27 10:05:20;;;;;;;1.52;0.72;;;;;;;13.55;56.59;145585.86;1834993;77;22124;-66
2021/09/27 10:08:24;;;;;;;4.78;0.90;;;;;;;13.57;56.92;145589.66;1835040;77;22157;-64
2021/09/27 10:11:05;;;;;;;2.30;0.95;;;;;;;13.61;57.47;145600.97;1853533;77;22160;-65
2021/09/27 10:13:55;;;;;;;1.95;1.10;;;;;;;13.63;57.84;145605.97;1834923;77;22168;-69
2021/09/27 10:16:42;;;;;;;1.50;0.80;;;;;;;13.60;58.15;145598.42;1853520;77;22221;-65
2021/09/27 10:19:38;;;;;;;2.80;0.60;;;;;;;13.55;57.88;145585.86;1819427;77;27956;-66
2021/09/27 10:22:30;;;;;;;1.75;0.90;;;;;;;13.44;54.51;145559.47;1848249;78;22131;-65
2021/09/27 10:25:27;;;;;;;1.37;0.62;;;;;;;13.31;53.99;145525.55;1853551;77;22535;-64
2021/09/27 10:28:27;;;;;;;1.87;0.82;;;;;;;13.27;54.94;145516.72;1834149;77;22636;-65
2021/09/27 10:31:25;;;;;;;1.77;0.93;;;;;;;13.33;55.59;145531.83;1853488;77;22143;-66
2021/09/27 10:34:18;;;;;;;0.95;0.50;;;;;;;13.34;55.31;145533.08;1843587;78;22176;-64
2021/09/27 10:37:23;;;;;;;1.92;0.78;;;;;;;13.46;55.42;145563.27;1843466;77;22124;-65
2021/09/27 10:40:19;;;;;;;1.90;0.80;;;;;;;13.67;55.35;145616.03;1835009;77;22573;-66
2021/09/27 10:43:18;;;;;;;3.37;0.85;;;;;;;13.87;55.44;145663.84;1835190;77;22161;-66
2021/09/27 10:46:11;;;;;;;2.42;0.80;;;;;;;13.96;55.65;145686.44;1853596;77;22132;-65
2021/09/27 10:48:51;;;;;;;2.35;0.98;;;;;;;13.90;56.18;145671.37;1834956;77;22200;-66
2021/09/27 10:51:32;;;;;;;2.35;1.10;;;;;;;13.83;57.24;145655.00;1835068;77;22144;-65
2021/09/27 10:54:36;;;;;;;4.40;0.90;;;;;;;13.85;58.04;145658.80;1835050;77;22132;-65
2021/09/27 10:57:20;;;;;;;2.15;1.00;;;;;;;13.83;58.84;145653.77;1819163;77;27939;-64
2021/09/27 11:00:00;;;;;;;3.25;1.30;;;;;;;13.78;58.98;145642.44;1853533;77;22160;-64
2021/09/27 11:02:49;;;;;;;2.33;1.02;;;;;;;13.68;60.13;145618.53;1853604;77;22155;-66
2021/09/27 11:05:38;;;;;;;3.40;1.00;;;;;;;13.71;60.99;145624.81;1835137;77;22657;-65
2021/09/27 11:08:17;;;;;;;2.42;0.85;;;;;;;13.75;61.40;145633.66;1835126;77;22152;-66
2021/09/27 11:10:52;;;;;;;2.30;1.02;;;;;;;13.77;60.88;145638.69;1853835;77;22123;-64
2021/09/27 11:13:41;;;;;;;2.72;1.20;;;;;;;13.72;60.29;145626.12;1853869;77;22597;-64
2021/09/27 11:16:33;;;;;;;3.75;1.42;;;;;;;13.66;60.85;145612.25;1843632;77;22160;-64
2021/09/27 11:19:31;;;;;;;4.95;1.30;;;;;;;13.60;61.97;145598.42;1835076;77;22152;-66
2021/09/27 11:22:38;;;;;;;3.25;1.17;;;;;;;13.56;62.31;145587.11;1835067;77;22212;-65
2021/09/27 11:25:28;;;;;;;3.10;1.50;;;;;;;13.55;62.36;145584.61;1834168;77;20457;-65
2021/09/27 11:28:17;;;;;;;2.40;1.20;;;;;;;13.51;63.13;145575.83;1853557;77;22124;-65
2021/09/27 11:31:34;;;;;;;2.83;1.32;;;;;;;13.53;63.21;145580.81;1853471;77;22135;-65
2021/09/27 11:34:42;;;;;;;4.17;1.30;;;;;;;13.61;63.09;145600.97;1834754;77;22160;-65
2021/09/27 11:37:28;;;;;;;6.83;1.57;;;;;;;13.65;63.51;145609.75;1835029;77;22202;-65
2021/09/27 11:40:40;;;;;;;2.37;1.20;;;;;;;13.68;63.53;145618.53;1853538;77;22591;-66
2021/09/27 11:44:13;;;;;;;4.92;1.50;;;;;;;13.60;63.25;145597.19;1853571;77;22191;-65
2021/09/27 11:47:01;;;;;;;4.70;1.72;;;;;;;13.58;63.90;145593.39;1819414;77;27966;-65
2021/09/27 11:50:08;;;;;;;2.77;1.42;;;;;;;13.72;64.07;145626.12;1835041;77;22153;-65
2021/09/27 11:53:09;;;;;;;5.58;1.62;;;;;;;13.82;63.98;145651.27;1815877;79;22255;-66
2021/09/27 11:55:49;;;;;;;5.05;1.55;;;;;;;13.81;64.21;145648.72;1835053;77;22132;-65
2021/09/27 11:58:54;;;;;;;4.47;1.50;;;;;;;13.84;63.53;145656.25;1853532;77;22127;-66
2021/09/27 12:02:25;;;;;;;4.37;1.40;;;;;;;13.80;62.95;145646.22;1834956;77;22136;-65
2021/09/27 12:05:21;;;;;;;4.97;2.27;;;;;;;13.75;63.12;145633.66;1835031;77;22204;-65
2021/09/27 12:08:28;;;;;;;8.33;2.20;;;;;;;13.70;63.40;145621.08;1834987;77;22133;-64
2021/09/27 12:11:08;;;;;;;4.78;2.30;;;;;;;13.74;63.82;145631.11;1835116;77;22536;-65
2021/09/27 12:14:01;;;;;;;3.58;1.77;;;;;;;13.75;63.61;145633.66;1834147;77;22148;-64
2021/09/27 12:16:41;;;;;;;2.62;1.60;;;;;;;13.65;63.77;145609.75;1835229;77;22145;-66
2021/09/27 12:19:52;;;;;;;5.05;2.00;;;;;;;13.55;64.40;145584.61;1835052;77;22128;-64
2021/09/27 12:22:38;;;;;;;5.80;1.70;;;;;;;13.41;65.11;145551.94;1834906;77;22192;-65
2021/09/27 12:25:27;;;;;;;2.47;1.50;;;;;;;13.36;65.39;145538.12;1819371;77;28377;-66
2021/09/27 12:28:12;;;;;;;3.27;1.60;;;;;;;13.40;65.89;145548.16;1834980;77;22193;-65
2021/09/27 12:30:56;;;;;;;5.03;2.17;;;;;;;13.35;66.31;145536.83;1837754;77;28393;-65
2021/09/27 12:33:49;;;;;;;5.90;1.98;;;;;;;13.40;66.63;145548.16;1834943;77;22129;-65
2021/09/27 12:36:24;;;;;;;3.87;1.95;;;;;;;13.43;66.91;145556.97;1834969;77;22128;-64
2021/09/27 12:38:59;;;;;;;3.10;1.57;;;;;;;13.47;66.73;145565.75;1853519;77;22124;-64
2021/09/27 12:41:35;;;;;;;2.95;1.30;;;;;;;13.43;65.65;145555.69;1853505;77;22269;-64
2021/09/27 12:44:18;;;;;;;7.83;1.90;;;;;;;13.30;65.52;145523.00;1835001;77;22555;-64
2021/09/27 12:46:56;;;;;;;3.02;1.62;;;;;;;13.19;66.13;145496.58;1853548;77;22128;-64
2021/09/27 12:49:54;;;;;;;3.02;1.70;;;;;;;13.05;67.06;145462.63;1819320;77;27986;-65
2021/09/27 12:52:47;;;;;;;9.33;2.17;;;;;;;12.96;67.57;145440.03;1834823;77;22121;-66
2021/09/27 12:55:53;;;;;;;3.12;1.62;;;;;;;12.87;68.47;145417.39;1817129;77;22650;-69
2021/09/27 12:58:39;;;;;;;4.33;1.80;;;;;;;12.90;68.83;145424.92;1834907;77;22136;-69
2021/09/27 13:01:37;;;;;;;3.58;1.87;;;;;;;13.05;69.02;145462.63;1834987;77;22168;-65
2021/09/27 13:04:36;;;;;;;3.47;2.00;;;;;;;13.20;69.03;145499.06;1834938;77;22160;-69
2021/09/27 13:07:43;;;;;;;4.20;1.80;;;;;;;13.28;68.88;145517.97;1834983;77;22128;-70
2021/09/27 13:10:50;;;;;;;4.92;2.12;;;;;;;13.26;68.83;145514.19;1817142;77;28012;-66
2021/09/27 13:13:52;;;;;;;5.55;1.90;;;;;;;13.29;69.22;145521.75;1843760;77;22338;-64
2021/09/27 13:16:40;;;;;;;5.20;1.85;;;;;;;13.26;68.95;145514.19;1824603;77;22203;-66
2021/09/27 13:19:45;;;;;;;4.75;2.50;;;;;;;13.21;68.37;145501.61;1846013;77;22576;-64
2021/09/27 13:22:41;;;;;;;4.15;1.92;;;;;;;13.16;69.14;145490.28;1835002;77;22132;-67
2021/09/27 13:25:37;;;;;;;5.78;2.30;;;;;;;13.12;69.08;145478.97;1834077;77;22214;-66
2021/09/27 13:28:38;;;;;;;5.33;2.33;;;;;;;13.05;69.06;145462.63;1834137;77;22619;-66
2021/09/27 13:31:29;;;;;;;7.25;2.08;;;;;;;12.95;69.47;145438.78;1834906;77;22232;-66
2021/09/27 13:34:09;;;;;;;4.33;1.95;;;;;;;12.91;69.55;145428.70;1853472;77;22163;-66
2021/09/27 13:36:50;;;;;;;3.95;1.98;;;;;;;12.84;69.68;145409.86;1853502;77;22200;-65
2021/09/27 13:39:46;;;;;;;4.00;1.92;;;;;;;12.74;69.84;145387.22;1853472;77;22586;-65
2021/09/27 13:43:25;;;;;;;4.10;1.80;;;;;;;12.69;70.36;145374.66;1843816;77;22231;-67
2021/09/27 13:46:11;;;;;;;3.98;1.90;;;;;;;12.62;70.71;145357.11;1837818;77;38714;-65
2021/09/27 13:48:46;;;;;;;6.05;2.27;;;;;;;12.60;71.24;145352.08;1834870;77;22153;-65
2021/09/27 13:51:26;;;;;;;7.03;2.12;;;;;;;12.55;71.72;145340.77;1834935;77;22137;-65